sensor_id;sensor_type;location;lat;lon;timestamp;pressure;altitude;pressure_sealevel;temperature;humidity
4528;BME280;62320;51.520;6.818;2023-05-16T00:09:49;101207.81;;;11.91;97.42
4528;BME280;62320;51.520;6.818;2023-05-16T00:19:50;101213.03;;;11.83;96.56
4528;BME280;62320;51.520;6.818;2023-05-16T00:29:59;101218.88;;;11.43;98.62
4528;BME280;62320;51.520;6.818;2023-05-16T00:40:01;101214.47;;;11.15;100.00
4528;BME280;62320;51.520;6.818;2023-05-16T00:50:02;101224.78;;;11.06;100.00
4528;BME280;62320;51.520;6.818;2023-05-16T01:00:06;101222.06;;;10.86;100.00
4528;BME280;62320;51.520;6.818;2023-05-16T01:10:11;101229.06;;;11.02;98.44
4528;BME280;62320;51.520;6.818;2023-05-16T01:20:23;101239.88;;;10.44;100.00
4528;BME280;62320;51.520;6.818;2023-05-16T01:30:38;101261.34;;;10.37;100.00
4528;BME280;62320;51.520;6.818;2023-05-16T01:41:03;101269.16;;;10.41;99.53
4528;BME280;62320;51.520;6.818;2023-05-16T01:51:09;101281.19;;;10.39;98.20
4528;BME280;62320;51.520;6.818;2023-05-16T02:01:12;101292.19;;;10.20;98.85
4528;BME280;62320;51.520;6.818;2023-05-16T02:11:14;101294.97;;;10.38;96.36
4528;BME280;62320;51.520;6.818;2023-05-16T02:21:16;101302.34;;;10.06;98.92
4528;BME280;62320;51.520;6.818;2023-05-16T02:31:31;101314.63;;;10.20;95.61
4528;BME280;62320;51.520;6.818;2023-05-16T02:41:33;101317.81;;;9.99;97.40
4528;BME280;62320;51.520;6.818;2023-05-16T02:51:34;101343.09;;;10.27;94.82
4528;BME280;62320;51.520;6.818;2023-05-16T03:01:36;101353.81;;;9.88;96.42
4528;BME280;62320;51.520;6.818;2023-05-16T03:11:37;101361.69;;;9.97;95.12
4528;BME280;62320;51.520;6.818;2023-05-16T03:21:39;101369.41;;;9.94;93.20
4528;BME280;62320;51.520;6.818;2023-05-16T03:31:40;101370.31;;;9.33;96.15
4528;BME280;62320;51.520;6.818;2023-05-16T03:41:43;101381.47;;;9.34;95.07
4528;BME280;62320;51.520;6.818;2023-05-16T03:51:44;101394.25;;;9.23;94.31
4528;BME280;62320;51.520;6.818;2023-05-16T04:01:46;101401.69;;;9.04;95.08
4528;BME280;62320;51.520;6.818;2023-05-16T04:11:48;101419.69;;;9.02;94.68
4528;BME280;62320;51.520;6.818;2023-05-16T04:21:50;101424.03;;;9.05;93.32
4528;BME280;62320;51.520;6.818;2023-05-16T04:31:52;101437.00;;;9.09;92.71
4528;BME280;62320;51.520;6.818;2023-05-16T04:41:54;101454.00;;;8.98;94.87
4528;BME280;62320;51.520;6.818;2023-05-16T04:51:59;101459.25;;;9.03;95.06
4528;BME280;62320;51.520;6.818;2023-05-16T05:02:00;101472.28;;;9.10;93.00
4528;BME280;62320;51.520;6.818;2023-05-16T05:12:02;101468.84;;;9.10;94.20
4528;BME280;62320;51.520;6.818;2023-05-16T05:22:04;101470.44;;;9.03;96.56
4528;BME280;62320;51.520;6.818;2023-05-16T05:32:06;101485.66;;;9.38;93.11
4528;BME280;62320;51.520;6.818;2023-05-16T05:42:08;101495.47;;;9.58;93.88
4528;BME280;62320;51.520;6.818;2023-05-16T05:52:10;101513.16;;;9.91;93.27
4528;BME280;62320;51.520;6.818;2023-05-16T06:02:12;101510.38;;;10.37;91.15
4528;BME280;62320;51.520;6.818;2023-05-16T06:12:14;101516.94;;;10.80;90.30
4528;BME280;62320;51.520;6.818;2023-05-16T06:22:15;101524.25;;;11.19;87.82
4528;BME280;62320;51.520;6.818;2023-05-16T06:32:17;101536.72;;;11.61;87.73
4528;BME280;62320;51.520;6.818;2023-05-16T06:42:18;101543.78;;;11.78;85.13
4528;BME280;62320;51.520;6.818;2023-05-16T06:52:21;101543.19;;;12.17;83.87
4528;BME280;62320;51.520;6.818;2023-05-16T07:02:23;101540.72;;;12.44;83.05
4528;BME280;62320;51.520;6.818;2023-05-16T07:12:25;101542.59;;;12.86;78.65
4528;BME280;62320;51.520;6.818;2023-05-16T07:22:26;101546.97;;;12.96;79.15
4528;BME280;62320;51.520;6.818;2023-05-16T07:32:28;101555.59;;;12.87;71.73
4528;BME280;62320;51.520;6.818;2023-05-16T07:42:30;101553.97;;;13.15;74.65
4528;BME280;62320;51.520;6.818;2023-05-16T07:52:31;101559.22;;;13.44;74.40
4528;BME280;62320;51.520;6.818;2023-05-16T08:02:33;101571.06;;;12.57;67.97
4528;BME280;62320;51.520;6.818;2023-05-16T08:12:34;101580.81;;;13.14;72.19
4528;BME280;62320;51.520;6.818;2023-05-16T08:22:36;101575.63;;;13.20;66.70
4528;BME280;62320;51.520;6.818;2023-05-16T08:32:38;101573.06;;;13.91;70.15
4528;BME280;62320;51.520;6.818;2023-05-16T08:42:39;101573.94;;;13.77;68.04
4528;BME280;62320;51.520;6.818;2023-05-16T08:52:46;101572.19;;;14.04;69.90
4528;BME280;62320;51.520;6.818;2023-05-16T09:02:48;101580.03;;;13.74;66.32
4528;BME280;62320;51.520;6.818;2023-05-16T09:12:50;101589.53;;;13.66;61.81
4528;BME280;62320;51.520;6.818;2023-05-16T09:22:57;101565.28;;;13.69;63.90
4528;BME280;62320;51.520;6.818;2023-05-16T09:32:58;101561.81;;;13.71;60.04
4528;BME280;62320;51.520;6.818;2023-05-16T09:43:04;101575.69;;;14.03;65.66
4528;BME280;62320;51.520;6.818;2023-05-16T09:53:06;101582.59;;;14.10;64.51
4528;BME280;62320;51.520;6.818;2023-05-16T10:03:08;101573.88;;;14.22;66.71
4528;BME280;62320;51.520;6.818;2023-05-16T10:13:10;101580.00;;;14.07;69.15
4528;BME280;62320;51.520;6.818;2023-05-16T10:23:16;101573.03;;;14.27;68.12
4528;BME280;62320;51.520;6.818;2023-05-16T10:33:18;101588.66;;;13.97;65.47
4528;BME280;62320;51.520;6.818;2023-05-16T10:43:28;101569.63;;;14.06;65.63
4528;BME280;62320;51.520;6.818;2023-05-16T10:53:32;101552.22;;;14.40;68.69
4528;BME280;62320;51.520;6.818;2023-05-16T11:03:34;101557.41;;;14.29;61.21
4528;BME280;62320;51.520;6.818;2023-05-16T11:13:53;101585.16;;;14.51;64.66
4528;BME280;62320;51.520;6.818;2023-05-16T11:24:27;101600.81;;;13.92;67.71
4528;BME280;62320;51.520;6.818;2023-05-16T11:34:31;101583.47;;;13.88;70.87
4528;BME280;62320;51.520;6.818;2023-05-16T11:44:35;101573.94;;;13.89;69.65
4528;BME280;62320;51.520;6.818;2023-05-16T11:54:39;101567.03;;;13.97;67.79
4528;BME280;62320;51.520;6.818;2023-05-16T12:04:45;101562.63;;;14.23;66.59
4528;BME280;62320;51.520;6.818;2023-05-16T12:14:47;101564.34;;;14.25;63.21
4528;BME280;62320;51.520;6.818;2023-05-16T12:24:52;101560.84;;;14.55;62.62
4528;BME280;62320;51.520;6.818;2023-05-16T12:34:53;101545.16;;;14.69;62.08
4528;BME280;62320;51.520;6.818;2023-05-16T12:44:56;101551.19;;;14.78;57.38
4528;BME280;62320;51.520;6.818;2023-05-16T12:54:57;101547.69;;;14.87;60.35
4528;BME280;62320;51.520;6.818;2023-05-16T13:04:59;101558.00;;;15.05;57.73
4528;BME280;62320;51.520;6.818;2023-05-16T13:15:00;101561.41;;;15.16;54.83
4528;BME280;62320;51.520;6.818;2023-05-16T13:25:03;101573.53;;;15.22;56.04
4528;BME280;62320;51.520;6.818;2023-05-16T13:35:05;101570.09;;;15.11;57.43
4528;BME280;62320;51.520;6.818;2023-05-16T13:45:07;101576.16;;;15.19;58.00
4528;BME280;62320;51.520;6.818;2023-05-16T13:55:09;101578.81;;;15.13;55.07
4528;BME280;62320;51.520;6.818;2023-05-16T14:05:10;101583.19;;;15.01;55.48
4528;BME280;62320;51.520;6.818;2023-05-16T14:15:12;101591.78;;;15.16;56.40
4528;BME280;62320;51.520;6.818;2023-05-16T14:25:13;101597.81;;;15.22;56.93
4528;BME280;62320;51.520;6.818;2023-05-16T14:35:15;101603.16;;;14.99;53.56
4528;BME280;62320;51.520;6.818;2023-05-16T14:45:16;101618.91;;;14.74;54.68
4528;BME280;62320;51.520;6.818;2023-05-16T14:55:19;101624.13;;;14.68;57.42
4528;BME280;62320;51.520;6.818;2023-05-16T15:05:21;101639.81;;;14.51;55.29
4528;BME280;62320;51.520;6.818;2023-05-16T15:15:26;101644.97;;;14.62;59.05
4528;BME280;62320;51.520;6.818;2023-05-16T15:25:28;101652.81;;;14.51;58.11
4528;BME280;62320;51.520;6.818;2023-05-16T15:35:30;101664.94;;;14.63;59.69
4528;BME280;62320;51.520;6.818;2023-05-16T15:45:32;101665.81;;;14.56;61.26
4528;BME280;62320;51.520;6.818;2023-05-16T15:55:34;101672.78;;;14.34;62.24
4528;BME280;62320;51.520;6.818;2023-05-16T16:05:35;101676.22;;;14.50;61.86
4528;BME280;62320;51.520;6.818;2023-05-16T16:15:37;101682.28;;;14.47;61.88
4528;BME280;62320;51.520;6.818;2023-05-16T16:25:39;101684.03;;;14.36;62.16
4528;BME280;62320;51.520;6.818;2023-05-16T16:35:41;101684.03;;;14.48;62.74
4528;BME280;62320;51.520;6.818;2023-05-16T16:45:43;101685.78;;;14.33;63.88
4528;BME280;62320;51.520;6.818;2023-05-16T16:55:44;101701.34;;;14.26;63.83
4528;BME280;62320;51.520;6.818;2023-05-16T17:05:46;101707.44;;;14.13;63.87
4528;BME280;62320;51.520;6.818;2023-05-16T17:15:47;101705.72;;;14.08;65.10
4528;BME280;62320;51.520;6.818;2023-05-16T17:25:49;101716.09;;;13.94;65.16
4528;BME280;62320;51.520;6.818;2023-05-16T17:35:51;101721.28;;;13.82;65.27
4528;BME280;62320;51.520;6.818;2023-05-16T17:45:52;101729.06;;;13.82;65.37
4528;BME280;62320;51.520;6.818;2023-05-16T17:55:54;101732.50;;;13.77;66.26
4528;BME280;62320;51.520;6.818;2023-05-16T18:05:56;101747.13;;;13.43;66.98
4528;BME280;62320;51.520;6.818;2023-05-16T18:15:58;101764.34;;;13.24;67.23
4528;BME280;62320;51.520;6.818;2023-05-16T18:26:00;101755.50;;;12.87;71.29
4528;BME280;62320;51.520;6.818;2023-05-16T18:36:02;101762.31;;;12.73;71.77
4528;BME280;62320;51.520;6.818;2023-05-16T18:46:03;101768.41;;;12.78;70.65
4528;BME280;62320;51.520;6.818;2023-05-16T18:56:05;101759.66;;;12.64;72.24
4528;BME280;62320;51.520;6.818;2023-05-16T19:06:06;101768.41;;;12.80;71.15
4528;BME280;62320;51.520;6.818;2023-05-16T19:16:08;101778.72;;;12.69;71.52
4528;BME280;62320;51.520;6.818;2023-05-16T19:26:09;101789.06;;;12.65;71.80
4528;BME280;62320;51.520;6.818;2023-05-16T19:36:11;101789.84;;;12.56;70.76
4528;BME280;62320;51.520;6.818;2023-05-16T19:46:13;101791.47;;;12.44;71.63
4528;BME280;62320;51.520;6.818;2023-05-16T19:56:14;101794.06;;;12.42;71.45
4528;BME280;62320;51.520;6.818;2023-05-16T20:06:16;101807.84;;;12.38;72.54
4528;BME280;62320;51.520;6.818;2023-05-16T20:16:17;101817.16;;;12.18;76.14
4528;BME280;62320;51.520;6.818;2023-05-16T20:26:20;101817.22;;;12.24;74.90
4528;BME280;62320;51.520;6.818;2023-05-16T20:36:23;101826.53;;;12.08;75.31
4528;BME280;62320;51.520;6.818;2023-05-16T20:46:24;101842.66;;;11.80;78.93
4528;BME280;62320;51.520;6.818;2023-05-16T20:56:26;101840.06;;;11.80;77.08
4528;BME280;62320;51.520;6.818;2023-05-16T21:06:28;101840.84;;;11.73;76.49
4528;BME280;62320;51.520;6.818;2023-05-16T21:16:29;101841.66;;;11.71;75.25
4528;BME280;62320;51.520;6.818;2023-05-16T21:26:31;101838.75;;;11.46;76.73
4528;BME280;62320;51.520;6.818;2023-05-16T21:36:33;101844.56;;;11.33;79.05
4528;BME280;62320;51.520;6.818;2023-05-16T21:46:34;101845.03;;;11.05;79.67
4528;BME280;62320;51.520;6.818;2023-05-16T21:56:36;101857.63;;;10.84;81.94
4528;BME280;62320;51.520;6.818;2023-05-16T22:06:37;101857.44;;;10.72;83.16
4528;BME280;62320;51.520;6.818;2023-05-16T22:16:39;101858.75;;;10.49;81.43
4528;BME280;62320;51.520;6.818;2023-05-16T22:26:40;101860.13;;;10.29;84.90
4528;BME280;62320;51.520;6.818;2023-05-16T22:36:42;101855.72;;;10.25;80.67
4528;BME280;62320;51.520;6.818;2023-05-16T22:46:43;101852.94;;;10.16;78.58
4528;BME280;62320;51.520;6.818;2023-05-16T22:56:45;101865.38;;;9.91;85.22
4528;BME280;62320;51.520;6.818;2023-05-16T23:06:47;101859.38;;;9.92;80.02
4528;BME280;62320;51.520;6.818;2023-05-16T23:16:48;101872.06;;;9.82;81.35
4528;BME280;62320;51.520;6.818;2023-05-16T23:26:49;101874.22;;;9.62;86.75
4528;BME280;62320;51.520;6.818;2023-05-16T23:36:51;101881.97;;;9.61;86.89
4528;BME280;62320;51.520;6.818;2023-05-16T23:46:52;101888.34;;;9.39;88.02
4528;BME280;62320;51.520;6.818;2023-05-16T23:56:54;101898.44;;;9.28;90.20
